createdAt,value
2022-11-24T00:01:45.441Z,7.35
2022-11-24T00:06:47.322Z,7.42
2022-11-24T00:11:50.314Z,7.47
2022-11-24T00:16:52.201Z,7.51
2022-11-24T00:21:54.025Z,7.49
2022-11-24T00:26:55.826Z,7.44
2022-11-24T00:31:57.986Z,7.39
2022-11-24T00:36:59.805Z,7.37
2022-11-24T00:42:02.154Z,7.33
2022-11-24T00:47:04.076Z,7.35
2022-11-24T00:52:06.000Z,7.33
2022-11-24T00:57:07.867Z,7.33
2022-11-24T01:02:09.818Z,7.28
2022-11-24T01:07:11.785Z,7.31
2022-11-24T01:12:13.619Z,7.22
2022-11-24T01:17:15.401Z,7.23
2022-11-24T01:22:17.208Z,7.19
2022-11-24T01:27:18.973Z,7.19
2022-11-24T01:32:20.802Z,7.25
2022-11-24T01:37:22.608Z,7.24
2022-11-24T01:42:24.663Z,7.18
2022-11-24T01:47:40.872Z,7.22
2022-11-24T01:53:00.978Z,7.26
2022-11-24T01:58:11.577Z,7.25
2022-11-24T02:03:17.876Z,7.27
2022-11-24T02:08:43.920Z,7.29
2022-11-24T02:13:48.790Z,7.26
2022-11-24T02:18:51.281Z,7.26
2022-11-24T02:24:22.083Z,7.19
2022-11-24T02:29:24.075Z,7.17
2022-11-24T02:34:26.860Z,7.17
2022-11-24T02:39:28.734Z,7.14
2022-11-24T02:44:36.530Z,7.11
2022-11-24T02:49:38.774Z,7.15
2022-11-24T02:54:53.673Z,7.13
2022-11-24T02:59:55.627Z,7.12
2022-11-24T03:04:58.605Z,7.12
2022-11-24T03:10:00.747Z,7.12
2022-11-24T03:15:06.902Z,7.13
2022-11-24T03:20:09.789Z,7.15
2022-11-24T03:25:13.721Z,7.13
2022-11-24T03:30:16.932Z,7.12
2022-11-24T03:35:18.808Z,7.17
2022-11-24T03:40:20.654Z,7.14
2022-11-24T03:45:44.883Z,7.15
2022-11-24T03:50:52.305Z,7.27
2022-11-24T03:55:54.949Z,7.30
2022-11-24T04:00:57.964Z,7.37
2022-11-24T04:05:59.842Z,7.37
2022-11-24T04:11:03.256Z,7.34
2022-11-24T04:16:08.996Z,7.38
2022-11-24T04:21:10.733Z,7.39
2022-11-24T04:26:12.911Z,7.38
2022-11-24T04:31:14.763Z,7.36
2022-11-24T04:36:16.541Z,7.35
2022-11-24T04:41:18.321Z,7.36
2022-11-24T04:46:20.124Z,7.32
2022-11-24T04:51:21.870Z,7.31
2022-11-24T04:56:23.645Z,7.30
2022-11-24T05:01:25.372Z,7.26
2022-11-24T05:06:27.115Z,7.33
2022-11-24T05:11:28.850Z,7.29
2022-11-24T05:16:30.586Z,7.30
2022-11-24T05:21:32.262Z,7.32
2022-11-24T05:26:35.530Z,7.31
2022-11-24T05:31:37.362Z,7.21
2022-11-24T05:36:54.447Z,7.26
2022-11-24T05:41:56.179Z,7.22
2022-11-24T05:46:57.974Z,7.22
2022-11-24T05:52:02.825Z,7.19
2022-11-24T05:57:05.069Z,7.25
2022-11-24T06:02:10.277Z,7.22
2022-11-24T06:07:12.666Z,7.25
2022-11-24T06:12:14.563Z,7.18
2022-11-24T06:17:16.228Z,7.11
2022-11-24T06:22:19.404Z,7.06
2022-11-24T06:27:28.180Z,6.97
2022-11-24T06:32:29.801Z,6.91
2022-11-24T06:37:36.507Z,6.87
2022-11-24T06:42:38.395Z,6.83
2022-11-24T06:47:46.158Z,6.76
2022-11-24T06:52:47.872Z,6.72
2022-11-24T06:57:49.548Z,6.70
2022-11-24T07:02:51.349Z,6.75
2022-11-24T07:07:53.833Z,6.69
2022-11-24T07:12:55.566Z,6.61
2022-11-24T07:17:57.575Z,6.64
2022-11-24T07:22:59.645Z,6.66
2022-11-24T07:28:01.830Z,6.65
2022-11-24T07:33:03.847Z,6.65
2022-11-24T07:38:05.512Z,6.57
2022-11-24T07:43:07.109Z,6.59
2022-11-24T07:48:10.266Z,6.61
2022-11-24T07:53:11.916Z,6.63
2022-11-24T07:58:13.511Z,6.65
2022-11-24T08:03:15.354Z,6.67
2022-11-24T08:08:17.057Z,6.69
2022-11-24T08:13:19.911Z,6.73
2022-11-24T08:18:24.391Z,6.74
2022-11-24T08:23:26.335Z,6.73
2022-11-24T08:28:27.934Z,6.81
2022-11-24T08:33:29.732Z,6.79
2022-11-24T10:55:17.590Z,8.63
2022-11-24T11:00:19.256Z,8.86
2022-11-24T11:05:26.313Z,8.87
2022-11-24T11:10:28.276Z,8.89
2022-11-24T11:15:31.532Z,8.94
2022-11-24T11:20:35.157Z,9.08
2022-11-24T11:25:41.151Z,9.08
2022-11-24T11:31:21.003Z,9.11
2022-11-24T11:36:24.558Z,9.06
2022-11-24T11:41:33.863Z,9.11
2022-11-24T11:46:36.047Z,9.12
2022-11-24T11:52:25.973Z,9.19
2022-11-24T11:57:42.931Z,9.25
2022-11-24T12:02:54.487Z,9.30
2022-11-24T12:08:21.090Z,9.30
2022-11-24T12:13:57.397Z,9.22
2022-11-24T12:19:24.519Z,9.15
2022-11-24T12:24:44.380Z,9.17
2022-11-24T12:29:48.774Z,9.15
2022-11-24T12:35:06.156Z,9.13
2022-11-24T12:40:23.763Z,9.13
2022-11-24T12:45:39.443Z,9.17
2022-11-24T12:50:43.986Z,9.17
2022-11-24T12:55:46.774Z,9.20
2022-11-24T13:01:16.170Z,9.23
2022-11-24T13:06:44.369Z,9.17
2022-11-24T13:11:51.628Z,9.21
2022-11-24T13:17:21.805Z,9.27
2022-11-24T13:22:24.370Z,9.25
2022-11-24T13:27:28.228Z,9.27
2022-11-24T13:32:46.284Z,9.27
2022-11-24T13:37:51.809Z,9.28
2022-11-24T13:42:57.670Z,9.27
2022-11-24T13:47:59.935Z,9.27
2022-11-24T13:53:12.985Z,9.29
2022-11-24T13:58:14.615Z,9.29
2022-11-24T14:03:24.027Z,9.21
2022-11-24T14:08:29.065Z,9.19
2022-11-24T14:13:34.473Z,9.13
2022-11-24T14:18:39.491Z,9.06
2022-11-24T14:23:45.194Z,9.02
2022-11-24T14:28:48.992Z,9.02
2022-11-24T14:34:07.041Z,8.99
2022-11-24T14:39:14.567Z,8.96
2022-11-24T14:44:28.995Z,8.92
2022-11-24T14:49:33.114Z,8.96
2022-11-24T14:54:37.695Z,8.94
2022-11-24T14:59:41.710Z,8.91
2022-11-24T15:05:04.372Z,8.87
2022-11-24T15:10:19.309Z,8.81
2022-11-24T15:15:29.383Z,8.77
2022-11-24T15:20:44.520Z,8.80
2022-11-24T15:25:47.574Z,8.73
2022-11-24T15:30:49.154Z,8.66
2022-11-24T15:35:50.991Z,8.60
2022-11-24T15:40:55.405Z,8.53
2022-11-24T15:46:00.510Z,8.48
2022-11-24T15:51:04.636Z,8.47
2022-11-24T15:56:10.891Z,8.44
2022-11-24T16:01:12.702Z,8.39
2022-11-24T16:06:24.124Z,8.34
2022-11-24T16:11:27.283Z,8.26
2022-11-24T16:16:28.983Z,8.28
2022-11-24T16:21:30.579Z,8.18
2022-11-24T16:26:32.739Z,8.10
2022-11-24T16:31:35.078Z,8.08
2022-11-24T16:36:36.760Z,8.06
2022-11-24T16:41:38.494Z,8.05
2022-11-24T16:46:40.240Z,8.05
2022-11-24T16:51:42.557Z,7.94
2022-11-24T16:56:44.159Z,7.93
2022-11-24T17:01:51.054Z,7.94
2022-11-24T17:06:53.715Z,7.93
2022-11-24T17:11:55.482Z,7.85
2022-11-24T17:16:57.187Z,7.86
2022-11-24T17:22:02.368Z,7.84
2022-11-24T17:27:04.171Z,7.81
2022-11-24T17:32:10.665Z,7.77
2022-11-24T17:37:19.964Z,7.78
2022-11-24T17:42:23.937Z,7.80
2022-11-24T17:47:27.475Z,7.83
2022-11-24T17:52:30.170Z,7.78
2022-11-24T17:57:32.410Z,7.77
2022-11-24T18:02:34.170Z,7.79
2022-11-24T18:07:36.703Z,7.72
2022-11-24T18:12:38.448Z,7.71
2022-11-24T18:17:41.656Z,7.69
2022-11-24T18:23:04.488Z,7.60
2022-11-24T18:28:05.139Z,7.58
2022-11-24T18:33:07.073Z,7.53
2022-11-24T18:38:09.298Z,7.51
2022-11-24T18:43:11.150Z,7.50
2022-11-24T18:48:14.642Z,7.51
2022-11-24T18:53:16.279Z,7.52
2022-11-24T18:58:17.925Z,7.45
2022-11-24T19:03:19.637Z,7.46
2022-11-24T19:08:22.673Z,7.46
2022-11-24T19:13:24.711Z,7.46
2022-11-24T19:18:33.190Z,7.44
2022-11-24T19:23:35.043Z,7.46
2022-11-24T19:29:29.907Z,7.46
2022-11-24T19:34:31.458Z,7.45
2022-11-24T19:39:36.994Z,7.43
2022-11-24T19:44:38.974Z,7.41
2022-11-24T19:49:40.610Z,7.45
2022-11-24T19:54:42.330Z,7.38
2022-11-24T21:28:05.114Z,7.71
2022-11-24T21:33:07.112Z,7.72
2022-11-24T21:38:09.057Z,7.71
2022-11-24T21:43:10.969Z,7.71
2022-11-24T21:48:12.720Z,7.72
2022-11-24T21:53:14.321Z,7.74
2022-11-24T21:58:16.016Z,7.73
2022-11-24T22:03:23.556Z,7.73
2022-11-24T22:08:27.224Z,7.77
2022-11-24T22:13:28.926Z,7.79
2022-11-24T22:18:36.343Z,7.84
2022-11-24T22:23:37.960Z,7.86
2022-11-24T22:28:39.801Z,7.82
2022-11-24T22:33:41.888Z,7.86
2022-11-24T22:38:43.591Z,7.89
2022-11-24T22:43:47.455Z,7.89
2022-11-24T22:48:52.958Z,7.85
2022-11-24T22:53:58.304Z,7.84
2022-11-24T22:59:13.646Z,7.86
2022-11-24T23:04:16.061Z,7.88
2022-11-24T23:09:17.765Z,7.90
2022-11-24T23:14:19.370Z,7.89
2022-11-24T23:19:20.957Z,7.88
2022-11-24T23:24:22.577Z,7.85
2022-11-24T23:29:24.253Z,7.86
2022-11-24T23:34:25.924Z,7.82
2022-11-24T23:39:27.594Z,7.82
2022-11-24T23:44:29.234Z,7.81
2022-11-24T23:49:30.954Z,7.84
2022-11-24T23:54:32.794Z,7.86
2022-11-24T23:59:34.710Z,7.82
